Map

Track Data

SID SEASON NUMBER BASIN SUBBASIN NAME ISO_TIME NATURE LAT LON WMO_WIND WMO_PRES WMO_AGENCY TRACK_TYPE DIST2LAND LANDFALL IFLAG USA_AGENCY USA_ATCF_ID USA_LAT USA_LON USA_RECORD USA_STATUS USA_WIND USA_PRES USA_SSHS USA_R34_NE USA_R34_SE USA_R34_SW USA_R34_NW USA_R50_NE USA_R50_SE USA_R50_SW USA_R50_NW USA_R64_NE USA_R64_SE USA_R64_SW USA_R64_NW USA_POCI USA_ROCI USA_RMW USA_EYE TOKYO_LAT TOKYO_LON TOKYO_GRADE TOKYO_WIND TOKYO_PRES TOKYO_R50_DIR TOKYO_R50_LONG TOKYO_R50_SHORT TOKYO_R30_DIR TOKYO_R30_LONG TOKYO_R30_SHORT TOKYO_LAND CMA_LAT CMA_LON CMA_CAT CMA_WIND CMA_PRES HKO_LAT HKO_LON HKO_CAT HKO_WIND HKO_PRES NEWDELHI_LAT NEWDELHI_LON NEWDELHI_GRADE NEWDELHI_WIND NEWDELHI_PRES NEWDELHI_CI NEWDELHI_DP NEWDELHI_POCI REUNION_LAT REUNION_LON REUNION_TYPE REUNION_WIND REUNION_PRES REUNION_TNUM REUNION_CI REUNION_RMW REUNION_R34_NE REUNION_R34_SE REUNION_R34_SW REUNION_R34_NW REUNION_R50_NE REUNION_R50_SE REUNION_R50_SW REUNION_R50_NW REUNION_R64_NE REUNION_R64_SE REUNION_R64_SW REUNION_R64_NW BOM_LAT BOM_LON BOM_TYPE BOM_WIND BOM_PRES BOM_TNUM BOM_CI BOM_RMW BOM_R34_NE BOM_R34_SE BOM_R34_SW BOM_R34_NW BOM_R50_NE BOM_R50_SE BOM_R50_SW BOM_R50_NW BOM_R64_NE BOM_R64_SE BOM_R64_SW BOM_R64_NW BOM_ROCI BOM_POCI BOM_EYE BOM_POS_METHOD BOM_PRES_METHOD NADI_LAT NADI_LON NADI_CAT NADI_WIND NADI_PRES WELLINGTON_LAT WELLINGTON_LON WELLINGTON_WIND WELLINGTON_PRES DS824_LAT DS824_LON DS824_STAGE DS824_WIND DS824_PRES TD9636_LAT TD9636_LON TD9636_STAGE TD9636_WIND TD9636_PRES TD9635_LAT TD9635_LON TD9635_WIND TD9635_PRES TD9635_ROCI NEUMANN_LAT NEUMANN_LON NEUMANN_CLASS NEUMANN_WIND NEUMANN_PRES MLC_LAT MLC_LON MLC_CLASS MLC_WIND MLC_PRES USA_GUST BOM_GUST BOM_GUST_PER REUNION_GUST REUNION_GUST_PER USA_SEAHGT USA_SEARAD_NE USA_SEARAD_SE USA_SEARAD_SW USA_SEARAD_NW STORM_SPEED STORM_DIR
1935092N08141 1935 21 WP MM NOT_NAMED 1935-04-02 10:00:00 NR 8.40000 141.100 main 1165 1165 __________O___ -1 8.40000 141.100 7 17 305
1935092N08141 1935 21 WP MM NOT_NAMED 1935-04-02 12:00:00 NR 8.72040 140.644 main 1184 1184 __________P___ -1 8.72040 140.644 7 16 305
1935092N08141 1935 21 WP MM NOT_NAMED 1935-04-02 15:00:00 NR 9.19288 139.973 main 1209 1205 __________P___ -1 9.19288 139.973 7 16 306
1935092N08141 1935 21 WP MM NOT_NAMED 1935-04-02 18:00:00 NR 9.64568 139.341 main 1224 1231 __________P___ -1 9.64568 139.341 7 15 306
1935092N08141 1935 21 WP MM NOT_NAMED 1935-04-02 21:00:00 NR 10.0679 138.772 main 1260 1257 __________P___ -1 10.0679 138.772 7 14 307
1935092N08141 1935 21 WP MM NOT_NAMED 1935-04-02 22:00:00 NR 10.2000 138.600 main 1265 1262 __________O___ -1 10.2000 138.600 7 12 309
1935092N08141 1935 21 WP MM NOT_NAMED 1935-04-03 00:00:00 NR 10.4494 138.287 main 1279 1285 __________P___ -1 10.4494 138.287 7 11 309
1935092N08141 1935 21 WP MM NOT_NAMED 1935-04-03 03:00:00 NR 10.7865 137.874 main 1288 1252 __________P___ -1 10.7865 137.874 7 10 309
1935092N08141 1935 21 WP MM NOT_NAMED 1935-04-03 06:00:00 NR 11.0791 137.500 main 1254 1215 __________P___ -1 11.0791 137.500 7 9 306
1935092N08141 1935 21 WP MM NOT_NAMED 1935-04-03 09:00:00 NR 11.3272 137.129 main 1215 1207 __________P___ -1 11.3272 137.129 7 9 303
1935092N08141 1935 21 WP MM NOT_NAMED 1935-04-03 10:00:00 NR 11.4000 137.000 main 1207 1177 __________O___ -1 11.4000 137.000 7 10 297
1935092N08141 1935 21 WP MM NOT_NAMED 1935-04-03 12:00:00 NR 11.5448 136.698 main 1177 1129 __________P___ -1 11.5448 136.698 7 10 293
1935092N08141 1935 21 WP MM NOT_NAMED 1935-04-03 15:00:00 NR 11.7244 136.233 main 1129 1089 __________P___ -1 11.7244 136.233 7 10 289
1935092N08141 1935 21 WP MM NOT_NAMED 1935-04-03 18:00:00 NR 11.8643 135.771 main 1092 1041 __________P___ -1 11.8643 135.771 7 9 286
1935092N08141 1935 21 WP MM NOT_NAMED 1935-04-03 21:00:00 NR 11.9708 135.336 main 1041 1031 __________P___ -1 11.9708 135.336 7 9 284
1935092N08141 1935 21 WP MM NOT_NAMED 1935-04-03 22:00:00 NR 12.0000 135.200 main 1031 1009 __________O___ -1 12.0000 135.200 7 8 284
1935092N08141 1935 21 WP MM NOT_NAMED 1935-04-04 00:00:00 NR 12.0612 134.955 main 1010 967 __________P___ -1 12.0612 134.955 7 7 283
1935092N08141 1935 21 WP MM NOT_NAMED 1935-04-04 03:00:00 NR 12.1280 134.618 main 967 936 __________P___ -1 12.1280 134.618 7 6 280
1935092N08141 1935 21 WP MM NOT_NAMED 1935-04-04 06:00:00 NR 12.1705 134.306 main 936 903 __________P___ -1 12.1705 134.306 7 6 276
1935092N08141 1935 21 WP MM NOT_NAMED 1935-04-04 09:00:00 NR 12.1949 134.002 main 903 893 __________P___ -1 12.1949 134.002 7 6 274
1935092N08141 1935 21 WP MM NOT_NAMED 1935-04-04 10:00:00 NR 12.2000 133.900 main 893 871 __________O___ -1 12.2000 133.900 7 6 273
1935092N08141 1935 21 WP MM NOT_NAMED 1935-04-04 12:00:00 NR 12.2140 133.681 main 871 839 __________P___ -1 12.2140 133.681 7 6 272
1935092N08141 1935 21 WP MM NOT_NAMED 1935-04-04 15:00:00 NR 12.2224 133.352 main 839 796 __________P___ -1 12.2224 133.352 7 6 270
1935092N08141 1935 21 WP MM NOT_NAMED 1935-04-04 18:00:00 NR 12.2187 133.025 main 796 763 __________P___ -1 12.2187 133.025 7 6 268
1935092N08141 1935 21 WP MM NOT_NAMED 1935-04-04 21:00:00 NR 12.2058 132.705 main 763 753 __________P___ -1 12.2058 132.705 7 6 267
1935092N08141 1935 21 WP MM NOT_NAMED 1935-04-04 22:00:00 NR 12.2000 132.600 main 753 731 __________O___ -1 12.2000 132.600 7 6 267
1935092N08141 1935 21 WP MM NOT_NAMED 1935-04-05 00:00:00 NR 12.1915 132.397 main 731 699 __________P___ -1 12.1915 132.397 7 6 267
1935092N08141 1935 21 WP MM NOT_NAMED 1935-04-05 03:00:00 NR 12.1727 132.099 main 699 665 __________P___ -1 12.1727 132.099 7 6 266
1935092N08141 1935 21 WP MM NOT_NAMED 1935-04-05 06:00:00 NR 12.1465 131.803 main 665 633 __________P___ -1 12.1465 131.803 7 6 264
1935092N08141 1935 21 WP MM NOT_NAMED 1935-04-05 09:00:00 NR 12.1129 131.502 main 633 622 __________P___ -1 12.1129 131.502 7 6 263
1935092N08141 1935 21 WP MM NOT_NAMED 1935-04-05 10:00:00 NR 12.1000 131.400 main 622 601 __________O___ -1 12.1000 131.400 7 6 263
1935092N08141 1935 21 WP MM NOT_NAMED 1935-04-05 12:00:00 NR 12.0799 131.218 main 601 567 __________P___ -1 12.0799 131.218 7 5 263
1935092N08141 1935 21 WP MM NOT_NAMED 1935-04-05 15:00:00 NR 12.0437 130.939 main 567 535 __________P___ -1 12.0437 130.939 7 6 262
1935092N08141 1935 21 WP MM NOT_NAMED 1935-04-05 18:00:00 NR 11.9950 130.626 main 535 490 __________P___ -1 11.9950 130.626 7 7 260
1935092N08141 1935 21 WP MM NOT_NAMED 1935-04-05 21:00:00 NR 11.9277 130.247 main 490 479 __________P___ -1 11.9277 130.247 7 8 260
1935092N08141 1935 21 WP MM NOT_NAMED 1935-04-05 22:00:00 NR 11.9000 130.100 main 479 445 __________O___ -1 11.9000 130.100 2 10 258
1935092N08141 1935 21 WP MM NOT_NAMED 1935-04-06 00:00:00 NR 11.8288 129.763 main 445 379 __________P___ -1 11.8288 129.763 2 11 258
1935092N08141 1935 21 WP MM NOT_NAMED 1935-04-06 03:00:00 NR 11.7027 129.187 main 379 312 __________P___ -1 11.7027 129.187 2 12 257
1935092N08141 1935 21 WP MM NOT_NAMED 1935-04-06 06:00:00 NR 11.5674 128.559 main 312 233 __________P___ -1 11.5674 128.559 2 13 258
1935092N08141 1935 21 WP MM NOT_NAMED 1935-04-06 09:00:00 NR 11.4387 127.913 main 233 212 __________P___ -1 11.4387 127.913 2 13 259
1935092N08141 1935 21 WP MM NOT_NAMED 1935-04-06 10:00:00 NR 11.4000 127.700 main 212 167 __________O___ -1 11.4000 127.700 2 13 257
1935092N08141 1935 21 WP MM NOT_NAMED 1935-04-06 12:00:00 NR 11.2992 127.281 main 167 100 __________P___ -1 11.2992 127.281 2 13 257
1935092N08141 1935 21 WP MM NOT_NAMED 1935-04-06 15:00:00 NR 11.1599 126.653 main 100 24 __________P___ -1 11.1599 126.653 2 12 259
1935092N08141 1935 21 WP MM NOT_NAMED 1935-04-06 18:00:00 NR 11.0707 126.044 main 24 0 __________P___ -1 11.0707 126.044 2 12 266
1935092N08141 1935 21 WP MM NOT_NAMED 1935-04-06 21:00:00 NR 11.0723 125.476 main 0 0 __________P___ -1 11.0723 125.476 2 11 272
1935092N08141 1935 21 WP MM NOT_NAMED 1935-04-06 22:00:00 NR 11.1000 125.300 main 0 0 __________O___ -1 11.1000 125.300 2 10 285
1935092N08141 1935 21 WP MM NOT_NAMED 1935-04-07 00:00:00 NR 11.2088 124.967 main 0 0 __________P___ -1 11.2088 124.967 2 10 295
1935092N08141 1935 21 WP MM NOT_NAMED 1935-04-07 03:00:00 NR 11.4667 124.510 main 10 0 __________P___ -1 11.4667 124.510 2 10 305
1935092N08141 1935 21 WP MM NOT_NAMED 1935-04-07 06:00:00 NR 11.8023 124.098 main 10 0 __________P___ -1 11.8023 124.098 2 11 312
1935092N08141 1935 21 WP MM NOT_NAMED 1935-04-07 09:00:00 NR 12.1747 123.720 main 0 0 __________P___ -1 12.1747 123.720 2 10 316
1935092N08141 1935 21 WP MM NOT_NAMED 1935-04-07 10:00:00 NR 12.3000 123.600 main 0 0 __________O___ -1 12.3000 123.600 2 10 316
1935092N08141 1935 21 WP MM NOT_NAMED 1935-04-07 12:00:00 NR 12.5294 123.373 main 0 0 __________P___ -1 12.5294 123.373 2 10 318
1935092N08141 1935 21 WP MM NOT_NAMED 1935-04-07 15:00:00 NR 12.8866 123.059 main 24 10 __________P___ -1 12.8866 123.059 2 9 320
1935092N08141 1935 21 WP MM NOT_NAMED 1935-04-07 18:00:00 NR 13.2455 122.751 main 10 0 __________P___ -1 13.2455 122.751 2 9 319
1935092N08141 1935 21 WP MM NOT_NAMED 1935-04-07 21:00:00 NR 13.5907 122.420 main 0 0 __________P___ -1 13.5907 122.420 2 10 316
1935092N08141 1935 21 WP MM NOT_NAMED 1935-04-07 22:00:00 NR 13.7000 122.300 main 0 0 __________O___ -1 13.7000 122.300 2 10 307
1935092N08141 1935 21 WP MM NOT_NAMED 1935-04-08 00:00:00 NR 13.8901 122.018 main 0 0 __________P___ -1 13.8901 122.018 2 10 303
1935092N08141 1935 21 WP MM NOT_NAMED 1935-04-08 03:00:00 NR 14.1561 121.563 main 0 0 __________P___ -1 14.1561 121.563 2 10 301
1935092N08141 1935 21 WP MM NOT_NAMED 1935-04-08 06:00:00 NR 14.4183 121.095 main 0 0 __________P___ -1 14.4183 121.095 2 10 301
1935092N08141 1935 21 WP MM NOT_NAMED 1935-04-08 09:00:00 NR 14.6987 120.643 main 0 0 __________P___ -1 14.6987 120.643 2 10 304
1935092N08141 1935 21 WP MM NOT_NAMED 1935-04-08 10:00:00 NR 14.8000 120.500 main 0 0 __________O___ -1 14.8000 120.500 2 10 309
1935092N08141 1935 21 WP MM NOT_NAMED 1935-04-08 12:00:00 NR 15.0176 120.231 main 0 0 __________P___ -1 15.0176 120.231 2 10 313
1935092N08141 1935 21 WP MM NOT_NAMED 1935-04-08 15:00:00 NR 15.3762 119.864 main 0 10 __________P___ -1 15.3762 119.864 2 10 318
1935092N08141 1935 21 WP MM NOT_NAMED 1935-04-08 18:00:00 NR 15.7625 119.526 main 30 24 __________P___ -1 15.7625 119.526 2 10 321
1935092N08141 1935 21 WP MM NOT_NAMED 1935-04-08 21:00:00 NR 16.1646 119.206 main 57 57 __________P___ -1 16.1646 119.206 2 10 323
1935092N08141 1935 21 WP MM NOT_NAMED 1935-04-08 22:00:00 NR 16.3000 119.100 main 72 __________O___ -1 16.3000 119.100 2 10 322

Digital Typhoon Data and Search

About IBTrACS Database

This database is a web-friendly format of International Best Track Archive for Climate Stewardship (IBTrACS), a global best track data archive curated by NOAA dating back to 1842.

Updated: 2021-10-21